createdAt,value
2022-08-22T00:07:58.457Z,968.60
2022-08-22T00:17:58.645Z,968.62
2022-08-22T00:27:58.741Z,968.49
2022-08-22T00:37:59.088Z,968.43
2022-08-22T00:47:59.201Z,968.52
2022-08-22T00:57:59.450Z,968.57
2022-08-22T01:07:59.460Z,968.55
2022-08-22T01:17:59.613Z,968.64
2022-08-22T01:27:59.890Z,968.69
2022-08-22T01:37:59.911Z,968.68
2022-08-22T01:48:00.187Z,968.65
2022-08-22T01:58:00.725Z,968.68
2022-08-22T02:08:00.494Z,968.61
2022-08-22T02:18:01.222Z,968.61
2022-08-22T02:28:00.637Z,968.58
2022-08-22T02:38:00.697Z,968.47
2022-08-22T02:48:00.860Z,968.48
2022-08-22T02:58:01.108Z,968.45
2022-08-22T03:08:01.164Z,968.51
2022-08-22T03:18:01.323Z,968.40
2022-08-22T03:28:01.727Z,968.43
2022-08-22T03:38:01.669Z,968.39
2022-08-22T03:48:01.846Z,968.39
2022-08-22T03:58:02.006Z,968.32
2022-08-22T04:08:02.187Z,968.36
2022-08-22T04:18:02.307Z,968.44
2022-08-22T04:28:02.558Z,968.47
2022-08-22T04:38:02.632Z,968.68
2022-08-22T04:48:02.807Z,968.70
2022-08-22T04:58:06.494Z,968.68
2022-08-22T05:08:03.159Z,968.84
2022-08-22T05:18:03.316Z,968.87
2022-08-22T05:28:03.476Z,968.87
2022-08-22T05:38:03.648Z,968.87
2022-08-22T05:48:03.864Z,968.87
2022-08-22T05:58:04.043Z,969.00
2022-08-22T06:08:04.419Z,969.03
2022-08-22T06:18:04.360Z,969.06
2022-08-22T06:28:04.512Z,969.08
2022-08-22T06:38:04.945Z,969.00
2022-08-22T06:48:05.289Z,968.97
2022-08-22T06:58:04.929Z,969.02
2022-08-22T07:08:05.096Z,968.78
2022-08-22T07:18:05.271Z,968.89
2022-08-22T07:28:05.485Z,968.92
2022-08-22T07:38:05.675Z,968.80
2022-08-22T07:48:05.833Z,968.89
2022-08-22T07:58:05.994Z,968.88
2022-08-22T08:08:06.199Z,968.94
2022-08-22T08:18:06.377Z,968.89
2022-08-22T08:28:06.782Z,969.04
2022-08-22T08:38:06.758Z,969.03
2022-08-22T08:48:06.930Z,969.14
2022-08-22T08:58:07.294Z,969.00
2022-08-22T09:08:11.663Z,968.96
2022-08-22T09:18:07.555Z,969.08
2022-08-22T09:28:07.495Z,969.09
2022-08-22T09:38:07.816Z,969.00
2022-08-22T09:48:08.081Z,968.85
2022-08-22T09:58:11.495Z,968.91
2022-08-22T10:08:08.327Z,968.95
2022-08-22T10:18:10.531Z,968.97
2022-08-22T10:28:08.415Z,968.86
2022-08-22T10:38:10.553Z,968.81
2022-08-22T10:48:10.055Z,968.75
2022-08-22T10:58:09.295Z,968.54
2022-08-22T11:08:09.014Z,968.53
2022-08-22T11:18:12.877Z,968.43
2022-08-22T11:28:09.342Z,968.45
2022-08-22T11:38:11.123Z,968.35
2022-08-22T11:48:09.646Z,968.31
2022-08-22T11:58:09.797Z,968.17
2022-08-22T12:08:11.253Z,968.08
2022-08-22T12:18:10.073Z,968.07
2022-08-22T12:28:10.252Z,968.04
2022-08-22T12:38:28.483Z,967.97
2022-08-22T12:48:11.633Z,967.94
2022-08-22T12:58:10.840Z,967.85
2022-08-22T13:08:11.045Z,967.84
2022-08-22T13:18:29.468Z,967.69
2022-08-22T13:28:12.400Z,967.67
2022-08-22T13:38:12.329Z,967.64
2022-08-22T13:48:11.991Z,967.69
2022-08-22T13:58:12.107Z,967.60
2022-08-22T14:08:12.824Z,967.62
2022-08-22T14:18:12.102Z,967.62
2022-08-22T14:28:12.484Z,967.52
2022-08-22T14:38:17.266Z,967.63
2022-08-22T14:48:29.299Z,967.47
2022-08-22T14:58:13.814Z,967.48
2022-08-22T15:08:12.964Z,967.38
2022-08-22T15:18:13.171Z,967.28
2022-08-22T15:28:14.382Z,967.22
2022-08-22T15:38:14.537Z,967.20
2022-08-22T15:48:13.786Z,967.14
2022-08-22T15:58:14.069Z,967.06
2022-08-22T16:08:14.079Z,967.01
2022-08-22T16:18:14.290Z,966.99
2022-08-22T16:28:14.462Z,967.11
2022-08-22T16:38:14.643Z,967.03
2022-08-22T16:48:14.856Z,966.98
2022-08-22T16:58:15.048Z,966.96
2022-08-22T17:08:15.207Z,967.03
2022-08-22T17:18:15.370Z,967.09
2022-08-22T17:28:15.650Z,967.16
2022-08-22T17:38:15.722Z,967.26
2022-08-22T17:48:16.250Z,967.38
2022-08-22T17:58:37.536Z,967.40
2022-08-22T18:18:17.454Z,967.58
2022-08-22T18:28:16.624Z,967.61
2022-08-22T18:38:20.205Z,967.71
2022-08-22T18:48:17.027Z,967.90
2022-08-22T18:58:17.228Z,968.03
2022-08-22T19:08:17.407Z,967.98
2022-08-22T19:18:17.571Z,968.01
2022-08-22T19:28:17.736Z,968.11
2022-08-22T19:38:17.929Z,968.19
2022-08-22T19:48:18.108Z,968.19
2022-08-22T19:58:18.266Z,968.14
2022-08-22T20:08:20.286Z,968.30
2022-08-22T20:28:19.726Z,968.30
2022-08-22T20:38:19.018Z,968.30
2022-08-22T20:48:19.065Z,968.31
2022-08-22T20:58:19.235Z,968.24
2022-08-22T21:08:19.396Z,968.27
2022-08-22T21:18:19.561Z,968.32
2022-08-22T21:28:19.715Z,968.45
2022-08-22T21:38:20.141Z,968.52
2022-08-22T21:48:20.096Z,968.64
2022-08-22T21:58:36.757Z,968.66
2022-08-22T22:08:21.417Z,968.58
2022-08-22T22:18:20.584Z,968.77
2022-08-22T22:28:20.763Z,968.84
2022-08-22T22:38:24.069Z,968.85
2022-08-22T22:48:24.491Z,968.77
2022-08-22T22:58:21.251Z,968.88
2022-08-22T23:08:21.405Z,969.00
2022-08-22T23:18:30.306Z,969.00
2022-08-22T23:28:22.744Z,969.02
2022-08-22T23:38:21.924Z,969.25
2022-08-22T23:48:22.051Z,969.16
2022-08-22T23:58:22.208Z,969.31
